KDFW/DFW METAR and TAF weather

Enter ICAO airport designator
Station Type Date Time Source
KDFW METAR 2022/06/28 23:53 UTC NOAA

KDFW 282353Z 07006KT 10SM FEW080 FEW160 BKN250 32/11 A3006 RMK AO2 SLP170 T03220111 10333 20306 56024


Station Type Date Time Source
KDFW Decoded METAR 2022/06/28 23:53 UTC NOAA

DALLAS/FT. WORTH INTERNATIONAL AIRPORT , TX, United States (KDFW) 32-54N 097-02W 174M
Jun 28, 2022 - 07:53 PM EDT / 2022.06.28 2353 UTC
Wind: from the ENE (070 degrees) at 7 MPH (6 KT):0
Visibility: 10 mile(s):0
Sky conditions: mostly cloudy
Temperature: 90.0 F (32.2 C)
Dew Point: 52.0 F (11.1 C)
Relative Humidity: 27%
Pressure (altimeter): 30.06 in. Hg (1017 hPa)
Pressure tendency: 0.07 inches (2.4 hPa) lower than three hours ago
ob: KDFW 282353Z 07006KT 10SM FEW080 FEW160 BKN250 32/11 A3006 RMK AO2 SLP170 T03220111 10333 20306 56024
cycle: 0

Station Type Date Time Source
KDFW TAF 2022/06/28 21:54 UTC NOAA

KDFW 282051Z 2821/2924 06009KT P6SM FEW070 SCT250

Example: see airport list